Time;durP1;ratioP1;P1;durP2;ratioP2;P2;SDS_P1;SDS_P2;PMS_P1;PMS_P2;Temp;Humidity;BMP_temperature;BMP_pressure;BME280_temperature;BME280_humidity;BME280_pressure;Samples;Min_cycle;Max_cycle;Signal;HPM_P1;HPM_P2
2022/03/04 00:02:15;;;;;;;20.45;9.50;;;;;;;1.67;64.44;101842.31;4976969;28;20042;-72
2022/03/04 00:04:41;;;;;;;16.55;9.40;;;;;;;1.64;64.43;101842.41;4985635;28;20042;-65
2022/03/04 00:07:07;;;;;;;18.90;9.65;;;;;;;1.59;64.64;101846.97;4984608;28;20438;-67
2022/03/04 00:09:33;;;;;;;21.10;10.65;;;;;;;1.56;64.72;101848.81;4982323;28;20055;-70
2022/03/04 00:11:58;;;;;;;19.58;9.55;;;;;;;1.50;64.94;101842.66;4976938;28;20501;-72
2022/03/04 00:14:27;;;;;;;23.85;10.80;;;;;;;1.52;65.03;101847.97;4980936;28;20034;-74
2022/03/04 00:16:55;;;;;;;23.13;10.20;;;;;;;1.50;65.00;101856.06;4975596;28;20105;-66
2022/03/04 00:19:21;;;;;;;21.90;9.93;;;;;;;1.46;65.02;101857.03;4985050;28;20077;-73
2022/03/04 00:21:49;;;;;;;21.58;10.77;;;;;;;1.46;65.10;101861.50;4985771;28;20073;-67
2022/03/04 00:24:19;;;;;;;22.50;10.25;;;;;;;1.43;65.07;101858.88;4988370;28;20046;-67
2022/03/04 00:26:46;;;;;;;23.88;10.65;;;;;;;1.38;65.48;101861.66;4987005;28;20576;-68
2022/03/04 00:29:12;;;;;;;22.58;11.00;;;;;;;1.35;65.64;101863.50;4980777;28;20018;-75
2022/03/04 00:31:39;;;;;;;22.65;10.35;;;;;;;1.31;65.72;101862.69;4980108;28;20065;-74
2022/03/04 00:34:06;;;;;;;23.65;10.18;;;;;;;1.27;66.09;101867.22;4982359;28;20133;-67
2022/03/04 00:36:36;;;;;;;20.63;10.93;;;;;;;1.19;66.26;101861.09;4984909;28;20490;-68
2022/03/04 00:39:05;;;;;;;21.70;11.07;;;;;;;1.14;66.43;101864.75;4989246;28;20053;-74
2022/03/04 00:41:30;;;;;;;24.73;11.48;;;;;;;1.07;66.66;101868.44;4963622;28;20037;-73
2022/03/04 00:43:56;;;;;;;22.02;11.25;;;;;;;0.98;66.93;101870.38;4986051;28;20038;-67
2022/03/04 00:46:22;;;;;;;25.10;10.85;;;;;;;0.89;68.11;101867.84;4978669;28;20042;-72
2022/03/04 00:48:47;;;;;;;24.55;10.90;;;;;;;0.78;68.21;101859.09;4990841;28;20144;-67
2022/03/04 00:51:14;;;;;;;21.10;10.50;;;;;;;0.73;67.86;101863.63;4979506;28;20038;-72
2022/03/04 00:53:40;;;;;;;21.10;9.95;;;;;;;0.68;68.28;101870.84;4985744;28;20046;-73
2022/03/04 00:56:07;;;;;;;24.45;10.38;;;;;;;0.63;68.67;101875.41;5002323;28;20026;-72
2022/03/04 00:58:34;;;;;;;21.48;10.77;;;;;;;0.56;68.88;101874.63;4988650;28;20039;-71
2022/03/04 01:00:59;;;;;;;22.50;11.13;;;;;;;0.50;68.83;101872.88;4984158;28;20389;-68
2022/03/04 01:03:25;;;;;;;19.13;10.52;;;;;;;0.44;69.31;101872.09;4990566;28;20046;-71
2022/03/04 01:05:51;;;;;;;21.50;10.02;;;;;;;0.39;68.87;101873.97;4989481;28;20085;-68
2022/03/04 01:08:16;;;;;;;27.70;11.45;;;;;;;0.34;69.19;101875.81;4990201;28;20136;-69
2022/03/04 01:10:42;;;;;;;20.27;10.07;;;;;;;0.31;69.59;101876.72;4988095;28;20578;-66
2022/03/04 01:13:07;;;;;;;25.33;10.45;;;;;;;0.24;69.92;101881.28;4989420;28;20507;-73
2022/03/04 01:15:32;;;;;;;20.92;10.82;;;;;;;0.19;70.01;101882.28;4979317;28;20501;-66
2022/03/04 01:17:58;;;;;;;19.95;9.45;;;;;;;0.15;70.24;101883.22;4988668;28;20474;-72
2022/03/04 01:20:24;;;;;;;21.90;10.93;;;;;;;0.07;70.61;101880.63;5003732;28;20042;-68
2022/03/04 01:22:49;;;;;;;24.33;11.65;;;;;;;0.02;70.72;101876.25;5004988;28;20116;-73
2022/03/04 01:25:15;;;;;;;21.42;10.05;;;;;;;-0.05;71.06;101870.06;4991356;28;20038;-73
2022/03/04 01:27:40;;;;;;;26.17;12.02;;;;;;;-0.09;72.54;101871.03;4996361;28;20065;-66
2022/03/04 01:30:08;;;;;;;24.38;11.32;;;;;;;-0.12;72.89;101881.75;4984778;28;20383;-72
2022/03/04 01:32:34;;;;;;;24.67;11.63;;;;;;;-0.15;72.29;101871.06;4989848;28;20038;-65
2022/03/04 01:35:00;;;;;;;20.67;11.27;;;;;;;-0.15;72.10;101874.63;4988505;28;20045;-65
2022/03/04 01:37:25;;;;;;;25.63;10.57;;;;;;;-0.13;72.34;101872.84;4994875;28;20105;-73
2022/03/04 01:39:51;;;;;;;22.50;11.65;;;;;;;-0.16;73.01;101863.97;4999144;28;20044;-67
2022/03/04 01:42:17;;;;;;;23.42;10.85;;;;;;;-0.16;72.72;101863.97;4991419;28;20038;-65
2022/03/04 01:44:43;;;;;;;26.60;11.45;;;;;;;-0.20;72.05;101862.22;4986726;28;20513;-71
2022/03/04 01:47:08;;;;;;;24.70;10.88;;;;;;;-0.23;72.50;101856.91;5000270;28;20018;-72
2022/03/04 01:49:34;;;;;;;23.92;10.57;;;;;;;-0.28;72.22;101857.88;5008465;28;20092;-72
2022/03/04 01:51:59;;;;;;;22.67;10.82;;;;;;;-0.30;72.35;101856.09;4999694;28;20485;-72
2022/03/04 01:54:25;;;;;;;27.20;10.93;;;;;;;-0.34;72.36;101855.25;4987938;28;20657;-65
2022/03/04 01:56:51;;;;;;;22.38;10.65;;;;;;;-0.39;72.41;101858.88;5000761;28;20034;-65
2022/03/04 01:59:16;;;;;;;22.30;10.52;;;;;;;-0.45;72.85;101865.19;4995355;28;20486;-72
2022/03/04 02:01:42;;;;;;;21.58;9.93;;;;;;;-0.55;72.93;101860.84;4999316;28;20511;-72
2022/03/04 02:04:07;;;;;;;19.33;9.27;;;;;;;-0.63;75.26;101876.94;5007943;28;20045;-72
2022/03/04 02:06:32;;;;;;;22.27;10.57;;;;;;;-0.68;74.43;101878.78;5008480;28;20042;-66
2022/03/04 02:08:58;;;;;;;26.92;11.35;;;;;;;-0.67;74.63;101876.97;5009464;28;20080;-73
2022/03/04 02:11:23;;;;;;;22.42;11.30;;;;;;;-0.67;74.61;101885.88;4989303;28;20061;-72
2022/03/04 02:13:48;;;;;;;28.15;11.73;;;;;;;-0.68;74.93;101880.56;5000452;28;20592;-72
2022/03/04 02:16:36;;;;;;;24.38;11.27;;;;;;;-0.69;74.02;101873.47;4992303;28;20030;-72
2022/03/04 02:19:03;;;;;;;25.00;12.05;;;;;;;-0.68;74.87;101885.91;5008202;28;20038;-72
2022/03/04 02:21:31;;;;;;;27.02;10.40;;;;;;;-0.67;73.99;101877.88;5003384;28;20042;-72
2022/03/04 02:23:57;;;;;;;26.25;11.18;;;;;;;-0.70;74.04;101875.25;5000135;28;20493;-65
2022/03/04 02:26:22;;;;;;;23.98;11.23;;;;;;;-0.73;74.64;101869.91;5008007;28;20076;-73
2022/03/04 02:28:47;;;;;;;21.17;10.57;;;;;;;-0.74;74.91;101868.16;4988641;28;20585;-69
2022/03/04 02:31:18;;;;;;;26.35;11.93;;;;;;;-0.72;75.07;101866.34;4976464;28;20043;-72
2022/03/04 02:33:45;;;;;;;21.95;11.35;;;;;;;-0.65;74.85;101861.84;5005922;28;20584;-71
2022/03/04 02:36:11;;;;;;;25.30;11.52;;;;;;;-0.54;74.18;101858.13;5008416;28;20022;-66
2022/03/04 02:38:36;;;;;;;31.45;12.35;;;;;;;-0.45;73.91;101856.28;4981378;28;20493;-71
2022/03/04 02:41:02;;;;;;;20.25;10.60;;;;;;;-0.40;74.02;101857.13;5008966;28;20030;-71
2022/03/04 02:43:28;;;;;;;27.23;11.80;;;;;;;-0.36;73.92;101853.50;5005046;28;20038;-65
2022/03/04 02:45:53;;;;;;;29.13;11.05;;;;;;;-0.36;73.83;101850.84;4974064;28;20564;-65
2022/03/04 02:48:18;;;;;;;25.20;10.68;;;;;;;-0.34;73.53;101849.00;4998803;28;20144;-65
2022/03/04 02:50:44;;;;;;;27.40;11.77;;;;;;;-0.34;73.63;101847.22;5006260;28;20068;-65
2022/03/04 02:53:09;;;;;;;25.20;11.60;;;;;;;-0.36;73.47;101849.03;4988147;28;20041;-66
2022/03/04 02:55:35;;;;;;;24.52;11.45;;;;;;;-0.35;73.51;101845.47;5003292;28;20037;-66
2022/03/04 02:58:01;;;;;;;24.15;11.35;;;;;;;-0.34;73.80;101846.34;5006615;28;20038;-72
2022/03/04 03:00:26;;;;;;;26.70;11.57;;;;;;;-0.35;73.51;101845.47;4981140;28;20097;-67
2022/03/04 03:02:51;;;;;;;29.15;12.75;;;;;;;-0.38;73.77;101848.16;5007565;28;20030;-72
2022/03/04 03:05:17;;;;;;;29.05;12.15;;;;;;;-0.36;74.00;101845.50;5007024;28;20128;-65
2022/03/04 03:07:42;;;;;;;27.33;12.38;;;;;;;-0.36;73.76;101843.69;5003228;28;20049;-72
2022/03/04 03:10:09;;;;;;;25.60;11.00;;;;;;;-0.37;73.41;101849.97;4994086;28;20038;-65
2022/03/04 03:12:35;;;;;;;26.63;11.50;;;;;;;-0.38;73.85;101855.28;4990705;28;20036;-65
2022/03/04 03:15:01;;;;;;;29.88;12.60;;;;;;;-0.38;73.88;101849.94;4981102;28;20022;-65
2022/03/04 03:17:26;;;;;;;22.83;11.52;;;;;;;-0.40;73.53;101841.06;4998376;28;20030;-69
2022/03/04 03:19:52;;;;;;;25.63;12.90;;;;;;;-0.41;73.45;101845.53;4997675;28;20069;-71
2022/03/04 03:22:18;;;;;;;25.73;11.75;;;;;;;-0.45;73.53;101845.59;5008195;28;20057;-65
2022/03/04 03:24:44;;;;;;;28.65;12.40;;;;;;;-0.46;73.97;101846.50;5007711;28;20065;-72
2022/03/04 03:27:10;;;;;;;26.27;11.63;;;;;;;-0.49;73.76;101843.84;4982372;28;20038;-72
2022/03/04 03:29:35;;;;;;;27.90;13.07;;;;;;;-0.52;74.08;101845.63;4975375;28;20130;-66
2022/03/04 03:32:00;;;;;;;25.08;11.27;;;;;;;-0.52;73.90;101845.63;4979704;28;20037;-72
2022/03/04 03:34:26;;;;;;;25.67;12.07;;;;;;;-0.52;74.17;101847.44;5000952;28;20042;-71
2022/03/04 03:36:51;;;;;;;24.63;11.63;;;;;;;-0.54;74.03;101854.59;5001731;28;20109;-70
2022/03/04 03:39:16;;;;;;;25.70;11.45;;;;;;;-0.55;74.53;101860.84;5008706;28;20038;-72
2022/03/04 03:41:42;;;;;;;24.52;11.82;;;;;;;-0.60;74.50;101857.34;5007934;28;20034;-65
2022/03/04 03:44:07;;;;;;;23.88;11.77;;;;;;;-0.64;74.23;101867.16;4989035;28;20130;-71
2022/03/04 03:46:32;;;;;;;26.80;12.60;;;;;;;-0.68;74.21;101859.19;4993993;28;20041;-71
2022/03/04 03:48:58;;;;;;;24.00;11.63;;;;;;;-0.75;74.56;101863.69;5006837;28;20030;-71
2022/03/04 03:51:23;;;;;;;28.17;11.90;;;;;;;-0.77;74.95;101860.16;4966718;28;20089;-66
2022/03/04 03:53:49;;;;;;;26.00;12.70;;;;;;;-0.80;75.27;101863.72;4971652;28;20479;-65
2022/03/04 03:56:14;;;;;;;29.77;12.68;;;;;;;-0.81;75.47;101866.44;4984365;28;20061;-66
2022/03/04 03:58:39;;;;;;;26.27;12.35;;;;;;;-0.81;75.15;101859.28;4978951;28;20050;-67
2022/03/04 04:01:05;;;;;;;26.20;12.60;;;;;;;-0.83;75.35;101871.78;4975344;28;20061;-72
2022/03/04 04:03:30;;;;;;;31.50;12.35;;;;;;;-0.84;75.26;101859.34;4987231;28;20034;-72
2022/03/04 04:05:56;;;;;;;26.05;11.85;;;;;;;-0.87;75.20;101869.16;4986907;28;20066;-71
2022/03/04 04:08:22;;;;;;;29.30;12.40;;;;;;;-0.90;75.65;101872.72;4988396;28;20045;-71
2022/03/04 04:10:47;;;;;;;27.85;12.95;;;;;;;-0.95;76.08;101871.88;4985446;28;20393;-66
2022/03/04 04:13:12;;;;;;;28.30;12.75;;;;;;;-0.94;75.89;101876.31;4986843;28;20037;-65
2022/03/04 04:15:38;;;;;;;29.35;12.48;;;;;;;-0.97;76.10;101876.38;4981952;28;20042;-66
2022/03/04 04:18:04;;;;;;;31.73;12.73;;;;;;;-1.06;76.33;101873.78;4991389;28;20084;-65
2022/03/04 04:20:30;;;;;;;29.55;12.98;;;;;;;-1.08;76.66;101880.88;4991465;28;20034;-65
2022/03/04 04:22:55;;;;;;;28.65;12.27;;;;;;;-1.08;76.33;101878.22;4989613;28;20030;-66
2022/03/04 04:25:20;;;;;;;28.48;13.60;;;;;;;-1.10;76.22;101875.56;4991228;28;20038;-69
2022/03/04 04:27:46;;;;;;;26.02;12.63;;;;;;;-1.08;76.33;101883.56;4990565;28;20037;-70
2022/03/04 04:30:11;;;;;;;26.02;12.50;;;;;;;-1.09;76.60;101874.66;4983856;28;20406;-71
2022/03/04 04:32:36;;;;;;;26.25;13.02;;;;;;;-1.06;76.55;101887.13;4991815;28;20376;-67
2022/03/04 04:35:03;;;;;;;30.92;13.18;;;;;;;-1.06;76.32;101879.13;4992945;28;20039;-70
2022/03/04 04:37:28;;;;;;;31.25;13.48;;;;;;;-1.06;76.46;101889.78;5009089;28;20436;-71
2022/03/04 04:39:54;;;;;;;29.25;13.13;;;;;;;-1.05;76.56;101891.56;5010765;28;20042;-70
2022/03/04 04:42:19;;;;;;;29.65;12.93;;;;;;;-1.06;76.93;101887.13;5008207;28;20034;-65
2022/03/04 04:44:44;;;;;;;24.67;11.70;;;;;;;-1.07;76.59;101891.59;4973554;28;20046;-66
2022/03/04 04:47:12;;;;;;;25.90;13.07;;;;;;;-1.09;76.42;101885.34;4993983;28;20507;-65
2022/03/04 04:49:37;;;;;;;31.27;14.18;;;;;;;-1.11;76.76;101891.63;5008620;28;20046;-65
2022/03/04 04:52:05;;;;;;;30.13;13.23;;;;;;;-1.11;76.46;101895.16;5007882;28;20421;-72
2022/03/04 04:54:31;;;;;;;32.00;13.10;;;;;;;-1.10;76.67;101888.94;5010727;28;20037;-65
2022/03/04 04:56:56;;;;;;;33.13;13.73;;;;;;;-1.09;76.26;101895.16;4983198;28;20360;-72
2022/03/04 04:59:21;;;;;;;30.60;14.32;;;;;;;-1.11;76.60;101887.16;4982155;28;20132;-70
2022/03/04 05:01:47;;;;;;;30.58;13.68;;;;;;;-1.12;76.65;101893.41;4971577;28;20047;-65
2022/03/04 05:04:12;;;;;;;26.10;12.45;;;;;;;-1.11;76.65;101894.28;4989852;28;20141;-70
2022/03/04 05:06:37;;;;;;;25.08;11.05;;;;;;;-1.13;76.67;101882.72;4982454;28;20042;-70
2022/03/04 05:09:03;;;;;;;25.67;13.35;;;;;;;-1.12;76.53;101884.47;4986386;28;20089;-72
2022/03/04 05:11:29;;;;;;;29.80;11.93;;;;;;;-1.11;76.57;101880.94;4989350;28;20084;-65
2022/03/04 05:13:54;;;;;;;27.98;12.98;;;;;;;-1.16;76.76;101885.44;4987232;28;20520;-70
2022/03/04 05:16:19;;;;;;;28.25;13.25;;;;;;;-1.17;76.43;101894.31;4979998;28;20018;-65
2022/03/04 05:18:45;;;;;;;27.27;12.65;;;;;;;-1.19;76.58;101889.00;4988235;28;20157;-66
2022/03/04 05:21:10;;;;;;;25.65;11.73;;;;;;;-1.22;76.47;101890.78;4990060;28;20097;-70
2022/03/04 05:26:19;;;;;;;23.95;12.43;;;;;;;-1.30;77.10;101886.41;4978152;28;20112;-71
2022/03/04 05:28:45;;;;;;;32.22;13.77;;;;;;;-1.31;76.97;101889.06;4990235;28;20042;-68
2022/03/04 05:31:10;;;;;;;29.52;13.63;;;;;;;-1.34;77.14;101887.31;4994563;28;20129;-65
2022/03/04 05:33:35;;;;;;;25.55;12.73;;;;;;;-1.36;77.08;101889.09;5005791;28;20069;-65
2022/03/04 05:36:01;;;;;;;30.80;13.25;;;;;;;-1.37;77.27;101889.13;5007869;28;20481;-70
2022/03/04 05:38:27;;;;;;;34.33;13.50;;;;;;;-1.40;76.97;101898.03;4985861;28;20080;-65
2022/03/04 05:40:52;;;;;;;34.20;13.63;;;;;;;-1.40;77.25;101898.03;5009594;28;20553;-65
2022/03/04 05:43:18;;;;;;;31.67;13.80;;;;;;;-1.41;77.39;101901.59;5010458;28;20038;-65
2022/03/04 05:45:43;;;;;;;39.65;13.82;;;;;;;-1.41;77.42;101900.69;4984272;28;20026;-71
2022/03/04 05:48:08;;;;;;;27.55;13.27;;;;;;;-1.41;77.46;101911.38;5009110;28;20042;-66
2022/03/04 05:50:34;;;;;;;27.15;13.27;;;;;;;-1.42;77.64;101912.28;5006416;28;20092;-64
2022/03/04 05:53:00;;;;;;;31.67;14.27;;;;;;;-1.45;77.93;101910.50;4989238;28;20125;-71
2022/03/04 05:55:25;;;;;;;32.45;14.35;;;;;;;-1.48;77.83;101912.31;5007211;28;20053;-70
2022/03/04 05:57:51;;;;;;;30.33;14.73;;;;;;;-1.49;77.95;101918.53;4994588;28;20447;-67
2022/03/04 06:00:16;;;;;;;29.00;14.15;;;;;;;-1.50;78.30;101917.66;4979068;28;20030;-65
2022/03/04 06:02:42;;;;;;;37.58;15.32;;;;;;;-1.48;78.15;101912.31;4977309;28;20026;-65
2022/03/04 06:05:08;;;;;;;35.83;14.18;;;;;;;-1.50;78.01;101925.66;4984553;28;20133;-70
2022/03/04 06:07:35;;;;;;;30.77;14.02;;;;;;;-1.51;78.17;101929.22;4984789;28;20054;-72
2022/03/04 06:10:01;;;;;;;31.20;14.43;;;;;;;-1.50;78.51;101925.66;4981699;28;20038;-65
2022/03/04 06:12:26;;;;;;;36.40;14.05;;;;;;;-1.50;78.71;101928.31;4984894;28;20030;-71
2022/03/04 06:14:52;;;;;;;34.72;14.80;;;;;;;-1.50;78.59;101928.31;4979849;28;20037;-66
2022/03/04 06:17:17;;;;;;;34.20;14.98;;;;;;;-1.50;78.45;101931.00;4986381;28;20054;-69
2022/03/04 06:19:44;;;;;;;31.17;14.70;;;;;;;-1.50;78.39;101924.78;4980655;28;20030;-68
2022/03/04 06:22:09;;;;;;;28.70;13.50;;;;;;;-1.50;78.67;101932.78;4983140;28;20125;-71
2022/03/04 06:24:35;;;;;;;33.97;14.30;;;;;;;-1.47;78.13;101933.66;4987359;28;20110;-72
2022/03/04 06:27:00;;;;;;;30.73;13.90;;;;;;;-1.49;78.55;101934.53;4986759;28;20077;-68
2022/03/04 06:29:26;;;;;;;34.58;14.52;;;;;;;-1.45;78.50;101936.31;4975737;28;20156;-71
2022/03/04 06:31:52;;;;;;;29.85;13.35;;;;;;;-1.45;78.31;101942.53;4975149;28;20039;-68
2022/03/04 06:34:17;;;;;;;30.83;14.32;;;;;;;-1.46;78.19;101927.41;4992829;28;20041;-71
2022/03/04 06:36:43;;;;;;;30.27;14.82;;;;;;;-1.43;78.46;101935.41;4987557;28;20098;-71
2022/03/04 06:39:08;;;;;;;30.25;13.27;;;;;;;-1.40;78.42;101932.75;4988043;28;20042;-72
2022/03/04 06:41:33;;;;;;;35.67;14.38;;;;;;;-1.36;78.14;101941.59;4987434;28;20066;-65
2022/03/04 06:43:59;;;;;;;33.17;14.00;;;;;;;-1.37;78.19;101939.81;4982907;28;20046;-69
2022/03/04 06:46:24;;;;;;;28.98;14.65;;;;;;;-1.32;78.36;101940.69;4986252;28;20609;-67
2022/03/04 06:48:49;;;;;;;31.90;13.85;;;;;;;-1.32;78.55;101952.25;4986004;28;20133;-66
2022/03/04 06:51:15;;;;;;;34.22;14.07;;;;;;;-1.29;78.63;101948.69;4989232;28;20405;-66
2022/03/04 06:53:40;;;;;;;39.70;16.02;;;;;;;-1.25;78.26;101950.44;4987946;28;20409;-71
2022/03/04 06:56:06;;;;;;;31.80;14.07;;;;;;;-1.21;78.43;101953.94;4988280;28;20477;-71
2022/03/04 06:58:31;;;;;;;32.30;15.55;;;;;;;-1.19;78.58;101955.72;4993432;28;20085;-72
2022/03/04 07:00:57;;;;;;;32.33;14.60;;;;;;;-1.15;78.86;101960.16;4983146;28;20038;-72
2022/03/04 07:03:23;;;;;;;35.15;16.75;;;;;;;-1.09;78.42;101967.25;4988016;28;20033;-67
2022/03/04 07:05:49;;;;;;;40.03;17.15;;;;;;;-1.04;78.54;101968.09;4984964;28;20425;-72
2022/03/04 07:08:14;;;;;;;33.78;15.02;;;;;;;-0.99;78.70;101974.28;4974650;28;20039;-66
2022/03/04 07:10:43;;;;;;;33.70;15.43;;;;;;;-0.91;78.64;101976.91;4983610;28;20030;-67
2022/03/04 07:13:09;;;;;;;32.95;14.93;;;;;;;-0.88;78.19;101977.78;4985240;28;20030;-66
2022/03/04 07:15:35;;;;;;;33.28;14.75;;;;;;;-0.78;78.31;101984.84;4984043;28;20037;-67
2022/03/04 07:18:02;;;;;;;31.02;13.68;;;;;;;-0.57;77.14;101990.91;4985465;28;20094;-71
2022/03/04 07:20:28;;;;;;;34.38;14.90;;;;;;;-0.04;76.01;101993.09;4987545;28;20718;-72
2022/03/04 07:22:53;;;;;;;33.17;14.95;;;;;;;0.57;74.29;101985.28;4983208;28;20042;-72
2022/03/04 07:25:19;;;;;;;34.42;14.55;;;;;;;0.96;72.69;101984.72;4983070;28;20034;-72
2022/03/04 07:27:44;;;;;;;33.75;13.82;;;;;;;1.08;72.57;101988.13;4987509;28;20459;-67
2022/03/04 07:30:12;;;;;;;29.88;13.68;;;;;;;1.42;71.09;101981.34;4980333;28;20050;-67
2022/03/04 07:32:39;;;;;;;30.23;13.82;;;;;;;2.19;69.23;101983.53;4976412;28;20084;-66
2022/03/04 07:35:06;;;;;;;34.47;15.02;;;;;;;3.16;66.13;101992.19;4985978;28;20112;-67
2022/03/04 07:37:32;;;;;;;27.17;14.30;;;;;;;3.64;63.96;101984.75;5006275;28;20042;-65
2022/03/04 07:39:57;;;;;;;29.92;14.63;;;;;;;3.80;63.51;101991.50;4997626;28;20053;-67
2022/03/04 07:42:22;;;;;;;31.98;14.60;;;;;;;4.30;61.85;101989.25;4987521;28;20130;-70
2022/03/04 07:44:49;;;;;;;30.02;14.07;;;;;;;4.99;59.38;101980.94;4981431;28;20038;-67
2022/03/04 07:47:14;;;;;;;31.00;13.90;;;;;;;5.01;58.62;101977.28;4977233;28;20100;-66
2022/03/04 07:49:42;;;;;;;31.17;15.38;;;;;;;4.78;58.88;101975.28;4989456;28;20089;-72
2022/03/04 07:52:12;;;;;;;29.27;13.70;;;;;;;4.53;59.98;101980.53;4990723;28;20159;-67
2022/03/04 07:54:37;;;;;;;34.72;14.50;;;;;;;4.16;60.91;101975.31;4990087;28;20046;-67
2022/03/04 07:57:04;;;;;;;27.85;13.77;;;;;;;4.05;61.38;101993.53;4981614;28;20149;-72
2022/03/04 07:59:30;;;;;;;26.77;13.40;;;;;;;3.69;62.38;101987.34;4983827;28;20038;-73
2022/03/04 08:01:55;;;;;;;29.98;13.45;;;;;;;3.30;63.52;101996.31;4986538;28;20049;-71
2022/03/04 08:04:21;;;;;;;28.10;13.45;;;;;;;2.98;63.99;101996.19;4986020;28;20117;-71
2022/03/04 08:06:46;;;;;;;28.80;14.18;;;;;;;2.77;64.75;101992.19;4988179;28;20057;-71
2022/03/04 08:09:11;;;;;;;34.28;14.13;;;;;;;2.65;66.28;101998.69;4988717;28;20045;-66
2022/03/04 08:11:37;;;;;;;29.90;14.55;;;;;;;2.61;66.53;101993.41;4991639;28;20422;-72
2022/03/04 08:14:02;;;;;;;29.75;13.60;;;;;;;2.60;66.14;101997.91;4986587;28;20045;-71
2022/03/04 08:16:29;;;;;;;27.58;14.88;;;;;;;2.61;66.93;101998.78;4979072;28;20042;-73
2022/03/04 08:18:55;;;;;;;32.85;15.60;;;;;;;2.62;67.04;102001.47;4990052;28;20042;-71
2022/03/04 08:21:21;;;;;;;30.45;14.98;;;;;;;2.67;66.89;101996.88;4990513;28;20149;-71
2022/03/04 08:23:46;;;;;;;27.75;15.00;;;;;;;2.71;66.95;102003.06;4988108;28;20105;-74
2022/03/04 08:26:12;;;;;;;31.08;15.35;;;;;;;2.70;67.11;102003.97;4989796;28;20038;-67
2022/03/04 08:28:37;;;;;;;30.30;15.52;;;;;;;2.78;67.33;102002.00;4994063;28;20034;-66
2022/03/04 08:31:10;;;;;;;31.60;14.43;;;;;;;2.84;65.94;102011.75;4979920;28;20537;-67
2022/03/04 08:33:36;;;;;;;;;;;;;;;2.96;66.92;102016.84;4989805;28;20041;-66
2022/03/04 08:36:03;;;;;;;27.98;14.63;;;;;;;3.02;66.05;102009.53;4985426;28;20372;-66
2022/03/04 08:38:29;;;;;;;31.20;16.30;;;;;;;3.13;65.08;102013.81;4990706;28;20493;-66
2022/03/04 08:40:54;;;;;;;29.75;14.73;;;;;;;3.22;64.97;102013.59;4984908;28;20041;-67
2022/03/04 08:43:20;;;;;;;33.20;14.75;;;;;;;3.38;65.12;102014.97;4972994;28;20042;-73
2022/03/04 08:45:45;;;;;;;29.45;14.85;;;;;;;3.47;63.23;102019.25;4977472;28;20061;-67
2022/03/04 08:48:12;;;;;;;29.70;14.45;;;;;;;3.61;63.35;102024.31;4989524;28;20026;-68
2022/03/04 08:50:37;;;;;;;32.92;13.75;;;;;;;3.71;63.43;102017.78;4990631;28;20042;-72
2022/03/04 08:53:02;;;;;;;32.47;14.93;;;;;;;3.83;63.46;102018.34;4987794;28;20389;-67
2022/03/04 08:55:30;;;;;;;30.33;14.13;;;;;;;3.97;61.87;102019.81;4986572;28;20078;-70
2022/03/04 08:57:57;;;;;;;27.70;12.93;;;;;;;4.05;62.40;102031.25;4989151;28;20022;-67
2022/03/04 09:00:23;;;;;;;31.30;15.13;;;;;;;4.15;62.27;102022.00;4986914;28;20125;-67
2022/03/04 09:02:48;;;;;;;31.17;15.07;;;;;;;4.28;62.27;102031.50;4990003;28;20092;-72
2022/03/04 09:05:14;;;;;;;31.25;14.65;;;;;;;4.46;61.99;102019.34;4995512;28;20723;-72
2022/03/04 09:07:39;;;;;;;29.55;14.23;;;;;;;4.56;61.95;102022.66;4987175;28;20053;-67
2022/03/04 09:10:05;;;;;;;27.15;14.00;;;;;;;4.68;60.79;102019.63;4984693;28;20045;-72
2022/03/04 09:12:31;;;;;;;31.58;15.60;;;;;;;4.82;62.56;102025.47;4984076;28;20045;-72
2022/03/04 09:14:57;;;;;;;25.75;14.18;;;;;;;4.88;59.07;102021.72;4976727;28;20474;-70
2022/03/04 09:17:22;;;;;;;34.83;15.52;;;;;;;4.86;59.92;102019.06;4999372;28;20041;-68
2022/03/04 09:19:48;;;;;;;36.72;16.52;;;;;;;4.77;60.11;102019.34;4986379;28;20049;-68
2022/03/04 09:22:13;;;;;;;30.08;16.42;;;;;;;4.80;62.38;102021.06;4983947;28;20122;-72
2022/03/04 09:24:38;;;;;;;45.00;16.80;;;;;;;4.99;61.48;102010.59;4988701;28;20038;-73
2022/03/04 09:27:04;;;;;;;33.10;15.25;;;;;;;5.16;60.31;102010.09;4993602;28;20482;-67
2022/03/04 09:29:30;;;;;;;30.42;15.77;;;;;;;5.28;59.20;102007.91;4985639;28;20041;-69
2022/03/04 09:31:55;;;;;;;32.13;15.63;;;;;;;5.31;58.58;102004.19;4982935;28;20038;-68
2022/03/04 09:34:21;;;;;;;32.88;15.23;;;;;;;5.43;59.92;102006.50;4992602;28;20057;-68
2022/03/04 09:36:46;;;;;;;32.13;14.85;;;;;;;5.63;59.90;102004.03;4997310;28;20128;-68
2022/03/04 09:39:12;;;;;;;27.88;14.15;;;;;;;5.79;58.82;101998.13;4986360;28;20045;-67
2022/03/04 09:41:44;;;;;;;28.15;14.90;;;;;;;5.87;58.25;101996.03;5009252;28;20067;-68
2022/03/04 09:44:10;;;;;;;32.00;14.53;;;;;;;5.89;57.15;101995.06;4998256;28;20485;-73
2022/03/04 09:46:36;;;;;;;29.10;15.32;;;;;;;5.95;58.05;101996.69;4968187;28;20498;-68
2022/03/04 09:49:02;;;;;;;33.67;16.13;;;;;;;5.99;56.61;101992.06;4998434;28;20046;-74
2022/03/04 09:51:28;;;;;;;30.90;15.80;;;;;;;6.03;55.00;102004.53;4991671;28;20048;-69
2022/03/04 09:53:53;;;;;;;26.83;15.15;;;;;;;6.16;57.12;102000.47;4990813;28;20041;-74
2022/03/04 09:56:20;;;;;;;28.38;15.35;;;;;;;6.28;55.00;102001.84;5008183;28;20034;-74
2022/03/04 09:58:46;;;;;;;31.17;14.63;;;;;;;6.41;56.66;101996.88;4992391;28;20046;-69
2022/03/04 10:01:14;;;;;;;29.40;14.88;;;;;;;6.59;56.26;102002.50;4973570;28;20039;-74
2022/03/04 10:03:39;;;;;;;29.50;15.38;;;;;;;6.93;56.97;102001.19;4996481;28;20062;-75
2022/03/04 10:06:05;;;;;;;31.65;15.15;;;;;;;7.09;55.11;102005.09;4996717;28;20417;-68
2022/03/04 10:08:37;;;;;;;27.20;14.63;;;;;;;7.21;55.20;101995.59;4983360;28;20045;-72
2022/03/04 10:11:03;;;;;;;35.10;15.43;;;;;;;7.26;54.56;101998.97;4987223;28;20121;-72
2022/03/04 10:13:47;;;;;;;32.67;16.17;;;;;;;7.39;55.37;102002.97;4987614;28;20057;-69
2022/03/04 10:16:33;;;;;;;31.88;15.90;;;;;;;7.61;52.54;101997.56;4989480;28;20878;-73
2022/03/04 10:19:08;;;;;;;31.92;15.65;;;;;;;7.77;52.39;102005.03;4986619;28;20551;-68
2022/03/04 10:21:51;;;;;;;30.55;16.13;;;;;;;7.81;54.57;102014.81;4976290;28;20111;-75
2022/03/04 10:24:30;;;;;;;32.25;14.75;;;;;;;7.73;52.49;102011.53;4983227;28;20038;-69
2022/03/04 10:27:05;;;;;;;28.42;15.38;;;;;;;7.58;52.45;102018.47;4977451;28;20510;-68
2022/03/04 10:29:32;;;;;;;30.25;15.13;;;;;;;7.44;53.53;102018.16;4972434;28;20043;-75
2022/03/04 10:32:08;;;;;;;27.80;15.07;;;;;;;7.33;52.64;102014.06;4975753;28;20042;-74
2022/03/04 10:34:42;;;;;;;28.38;15.02;;;;;;;7.38;52.61;102016.56;4981770;28;20046;-68
2022/03/04 10:37:08;;;;;;;32.40;16.55;;;;;;;7.40;53.37;102011.97;4985719;28;20030;-68
2022/03/04 10:39:33;;;;;;;29.55;15.50;;;;;;;7.44;52.58;102008.19;4982377;28;20033;-67
2022/03/04 10:41:59;;;;;;;32.38;17.45;;;;;;;7.78;55.16;102004.97;4982790;28;20038;-75
2022/03/04 10:44:26;;;;;;;35.35;16.10;;;;;;;8.28;52.85;102009.16;4979654;28;20092;-67
2022/03/04 10:46:56;;;;;;;32.17;16.33;;;;;;;8.58;51.53;102004.22;4972956;28;20080;-71
2022/03/04 10:49:26;;;;;;;33.95;17.60;;;;;;;8.61;51.89;102001.38;4986128;28;20037;-74
2022/03/04 10:52:05;;;;;;;37.22;16.75;;;;;;;8.73;51.99;102002.66;4975235;28;20034;-72
2022/03/04 10:54:31;;;;;;;35.22;16.75;;;;;;;8.96;51.30;102002.47;4984388;28;20087;-68
2022/03/04 10:56:56;;;;;;;30.98;16.88;;;;;;;9.25;50.32;102003.78;4982474;28;20030;-76
2022/03/04 10:59:23;;;;;;;35.25;17.65;;;;;;;9.60;51.27;101993.88;4978509;28;20042;-74
2022/03/04 11:01:50;;;;;;;29.40;15.55;;;;;;;9.61;48.77;101989.34;4984786;28;20034;-68
2022/03/04 11:04:19;;;;;;;32.55;17.75;;;;;;;9.99;50.05;101984.66;4983907;28;20091;-68
2022/03/04 11:06:51;;;;;;;30.67;16.55;;;;;;;9.88;47.60;101995.19;4985264;28;20052;-74
2022/03/04 11:09:36;;;;;;;32.90;16.90;;;;;;;9.62;47.55;101993.81;4982356;28;20053;-76
2022/03/04 11:12:29;;;;;;;32.53;15.93;;;;;;;9.52;49.00;101987.09;4989146;28;20070;-76
2022/03/04 11:15:04;;;;;;;30.10;15.68;;;;;;;9.44;46.77;101993.75;4962158;28;20062;-67